createdAt,value
2017-11-11T00:00:49.816Z,988.01
2017-11-11T00:01:49.794Z,987.98
2017-11-11T00:02:49.773Z,988.03
2017-11-11T00:03:49.748Z,988.02
2017-11-11T00:04:49.725Z,988.03
2017-11-11T00:05:49.700Z,988.03
2017-11-11T00:06:49.679Z,988.02
2017-11-11T00:07:49.653Z,988.08
2017-11-11T00:08:49.638Z,988.05
2017-11-11T00:09:49.609Z,988.02
2017-11-11T00:10:49.591Z,988.00
2017-11-11T00:11:49.569Z,988.02
2017-11-11T00:13:04.125Z,987.99
2017-11-11T00:13:49.514Z,988.00
2017-11-11T00:14:49.506Z,988.04
2017-11-11T00:15:49.467Z,988.07
2017-11-11T00:16:49.449Z,988.03
2017-11-11T00:17:49.420Z,988.05
2017-11-11T00:18:49.401Z,988.09
2017-11-11T00:19:49.384Z,988.05
2017-11-11T00:20:49.357Z,988.05
2017-11-11T00:21:49.332Z,988.06
2017-11-11T00:22:49.307Z,988.04
2017-11-11T00:23:49.285Z,988.03
2017-11-11T00:24:49.258Z,988.03
2017-11-11T00:25:49.235Z,987.97
2017-11-11T00:26:49.219Z,988.01
2017-11-11T00:27:49.190Z,987.98
2017-11-11T00:28:49.175Z,987.99
2017-11-11T00:29:49.184Z,987.97
2017-11-11T00:30:49.172Z,987.95
2017-11-11T00:31:49.096Z,987.99
2017-11-11T00:32:49.069Z,987.94
2017-11-11T00:33:49.049Z,988.01
2017-11-11T00:34:49.029Z,988.01
2017-11-11T00:35:49.008Z,988.02
2017-11-11T00:36:48.986Z,988.03
2017-11-11T00:37:48.955Z,987.95
2017-11-11T00:38:48.937Z,988.01
2017-11-11T00:39:48.913Z,988.03
2017-11-11T00:40:48.892Z,988.05
2017-11-11T00:41:48.863Z,988.05
2017-11-11T00:42:48.838Z,988.03
2017-11-11T00:43:48.837Z,988.02
2017-11-11T00:44:48.795Z,988.06
2017-11-11T00:45:48.777Z,988.01
2017-11-11T00:46:48.756Z,988.01
2017-11-11T00:47:48.724Z,988.03
2017-11-11T00:48:48.700Z,988.06
2017-11-11T00:49:48.678Z,988.07
2017-11-11T00:50:48.655Z,988.09
2017-11-11T00:51:48.629Z,988.06
2017-11-11T00:52:48.607Z,988.07
2017-11-11T00:53:48.584Z,988.01
2017-11-11T00:54:48.560Z,988.03
2017-11-11T00:55:48.540Z,988.05
2017-11-11T00:56:48.517Z,988.06
2017-11-11T00:57:48.499Z,988.03
2017-11-11T00:58:48.477Z,988.03
2017-11-11T00:59:48.443Z,988.07
2017-11-11T01:00:48.429Z,988.00
2017-11-11T01:01:48.397Z,987.99
2017-11-11T01:02:48.383Z,987.97
2017-11-11T01:03:48.356Z,987.95
2017-11-11T01:04:48.329Z,987.97
2017-11-11T01:05:48.307Z,987.95
2017-11-11T01:06:48.283Z,988.00
2017-11-11T01:07:48.268Z,987.99
2017-11-11T01:08:48.241Z,988.05
2017-11-11T01:09:48.255Z,988.04
2017-11-11T01:10:48.192Z,988.05
2017-11-11T01:11:48.163Z,988.04
2017-11-11T01:12:48.151Z,988.03
2017-11-11T01:13:48.119Z,988.06
2017-11-11T01:14:48.095Z,988.08
2017-11-11T01:15:48.072Z,988.06
2017-11-11T01:23:03.382Z,987.96
2017-11-11T01:30:39.115Z,988.22
2017-11-11T01:31:11.582Z,987.94
2017-11-11T01:33:25.957Z,988.08
2017-11-11T01:42:07.221Z,987.90
2017-11-11T01:45:26.904Z,987.91
2017-11-11T01:48:19.137Z,987.87
2017-11-11T01:50:13.105Z,987.89
2017-11-11T01:51:46.812Z,987.87
2017-11-11T01:54:00.105Z,987.87
2017-11-11T01:55:00.064Z,987.89
2017-11-11T01:56:55.927Z,987.91
2017-11-11T01:57:55.886Z,987.87
2017-11-11T01:59:49.262Z,987.77
2017-11-11T02:00:49.219Z,987.88
2017-11-11T02:02:42.587Z,987.88
2017-11-11T02:03:42.535Z,987.84
2017-11-11T02:05:35.905Z,987.86
2017-11-11T02:06:35.863Z,987.87
2017-11-11T02:08:29.240Z,987.80
2017-11-11T02:09:31.774Z,987.79
2017-11-11T02:11:36.638Z,987.83
2017-11-11T02:12:22.534Z,987.81
2017-11-11T02:14:39.948Z,987.76
2017-11-11T02:15:15.838Z,987.81
2017-11-11T02:18:47.871Z,987.70
2017-11-11T02:19:44.808Z,987.71
2017-11-11T02:22:09.224Z,987.73
2017-11-11T02:22:40.658Z,987.69
2017-11-11T02:24:36.567Z,987.71
2017-11-11T02:25:37.053Z,987.70
2017-11-11T02:27:29.931Z,987.67
2017-11-11T02:29:45.788Z,987.63
2017-11-11T02:31:59.203Z,987.63
2017-11-11T02:32:59.128Z,987.65
2017-11-11T02:34:52.450Z,987.69
2017-11-11T02:35:52.445Z,987.74
2017-11-11T02:37:46.770Z,987.72
2017-11-11T02:38:46.728Z,987.76
2017-11-11T02:40:43.120Z,987.65
2017-11-11T02:41:42.556Z,987.60
2017-11-11T02:43:35.921Z,987.63
2017-11-11T02:44:35.875Z,987.56
2017-11-11T02:46:30.107Z,987.51
2017-11-11T02:47:30.056Z,987.52
2017-11-11T02:49:24.350Z,987.43
2017-11-11T02:50:24.302Z,987.44
2017-11-11T02:52:17.681Z,987.39
2017-11-11T02:53:17.632Z,987.42
2017-11-11T02:55:10.992Z,987.38
2017-11-11T02:56:10.940Z,987.41
2017-11-11T02:58:04.318Z,987.43
2017-11-11T02:59:04.285Z,987.43
2017-11-11T03:00:57.846Z,987.39
2017-11-11T03:01:57.794Z,987.36
2017-11-11T03:03:51.155Z,987.29
2017-11-11T03:04:51.112Z,987.30
2017-11-11T03:06:44.521Z,987.28
2017-11-11T03:07:44.510Z,987.26
2017-11-11T03:09:37.894Z,987.34
2017-11-11T03:10:37.807Z,987.30
2017-11-11T03:12:32.103Z,987.24
2017-11-11T03:13:32.055Z,987.26
2017-11-11T03:15:27.939Z,987.28
2017-11-11T03:16:27.890Z,987.28
2017-11-11T03:18:21.292Z,987.28
2017-11-11T03:19:21.247Z,987.24
2017-11-11T03:21:14.626Z,987.24
2017-11-11T03:22:14.603Z,987.19
2017-11-11T03:24:08.005Z,987.31
2017-11-11T03:25:07.952Z,987.32
2017-11-11T03:27:01.314Z,987.33
2017-11-11T03:28:01.265Z,987.33
2017-11-11T03:29:54.642Z,987.40
2017-11-11T03:30:54.597Z,987.35
2017-11-11T03:32:47.960Z,987.28
2017-11-11T03:33:47.919Z,987.26
2017-11-11T03:35:43.793Z,987.19
2017-11-11T03:36:43.754Z,987.18
2017-11-11T03:38:37.114Z,987.19
2017-11-11T03:39:37.077Z,987.17
2017-11-11T03:41:30.436Z,987.19
2017-11-11T03:42:30.414Z,987.18
2017-11-11T03:44:23.767Z,987.17
2017-11-11T03:45:23.722Z,987.09
2017-11-11T03:47:17.096Z,987.14
2017-11-11T03:48:17.059Z,987.07
2017-11-11T03:50:10.413Z,987.05
2017-11-11T03:51:10.374Z,987.14
2017-11-11T03:53:03.794Z,987.06
2017-11-11T03:54:03.735Z,987.05
2017-11-11T03:55:59.677Z,987.09
2017-11-11T03:56:59.628Z,987.14
2017-11-11T03:58:52.948Z,987.08
2017-11-11T03:59:52.900Z,987.08
2017-11-11T04:01:46.279Z,987.05
2017-11-11T04:02:46.229Z,987.09
2017-11-11T04:04:39.645Z,987.10
2017-11-11T04:05:39.542Z,987.05
2017-11-11T04:07:32.933Z,987.04
2017-11-11T04:08:32.890Z,987.03
2017-11-11T04:10:26.278Z,987.03
2017-11-11T04:11:26.235Z,987.07
2017-11-11T04:13:19.672Z,987.01
2017-11-11T04:14:19.569Z,987.02
2017-11-11T04:16:12.927Z,986.97
2017-11-11T04:17:12.888Z,987.05
2017-11-11T04:19:06.253Z,986.99
2017-11-11T04:20:06.212Z,986.98
2017-11-11T04:21:59.570Z,986.96
2017-11-11T04:22:59.562Z,986.98
2017-11-11T04:24:52.937Z,987.00
2017-11-11T04:25:52.893Z,987.00
2017-11-11T04:27:48.773Z,986.97
2017-11-11T04:28:48.730Z,986.97
2017-11-11T04:30:44.596Z,986.97
2017-11-11T04:31:44.553Z,986.97
2017-11-11T04:33:37.947Z,986.97
2017-11-11T04:34:37.907Z,986.95
2017-11-11T04:36:32.277Z,986.98
2017-11-11T04:37:32.080Z,987.00
2017-11-11T04:39:24.962Z,987.03
2017-11-11T04:40:24.922Z,987.02
2017-11-11T04:42:18.335Z,986.94
2017-11-11T04:43:18.297Z,986.95
2017-11-11T04:45:11.749Z,986.99
2017-11-11T04:46:11.671Z,986.94
2017-11-11T04:48:08.362Z,986.94
2017-11-11T04:49:08.317Z,986.97
2017-11-11T04:51:02.574Z,987.05
2017-11-11T04:52:02.530Z,987.02
2017-11-11T04:53:55.885Z,987.01
2017-11-11T04:54:55.846Z,987.05
2017-11-11T04:56:49.220Z,987.05
2017-11-11T04:57:49.182Z,987.10
2017-11-11T04:59:43.150Z,987.06
2017-11-11T05:00:42.492Z,987.12
2017-11-11T05:02:39.190Z,987.04
2017-11-11T05:03:39.157Z,987.01
2017-11-11T05:05:32.689Z,987.07
2017-11-11T05:06:32.495Z,987.03
2017-11-11T05:07:32.493Z,987.04
2017-11-11T05:08:32.465Z,987.03
2017-11-11T05:09:32.423Z,987.07
2017-11-11T05:10:32.410Z,987.07
2017-11-11T05:11:32.380Z,987.14
2017-11-11T05:12:32.357Z,987.07
2017-11-11T05:13:32.337Z,987.09
2017-11-11T05:14:32.316Z,987.10
2017-11-11T05:15:32.284Z,987.08
2017-11-11T05:16:32.286Z,987.10
2017-11-11T05:17:32.246Z,987.08
2017-11-11T05:18:32.216Z,987.06
2017-11-11T05:19:32.206Z,987.05
2017-11-11T05:20:32.176Z,987.02
2017-11-11T05:21:32.144Z,986.95
2017-11-11T05:22:32.121Z,986.95
2017-11-11T05:23:32.098Z,987.02
2017-11-11T05:24:32.071Z,987.00
2017-11-11T05:25:32.052Z,987.01
2017-11-11T05:26:32.047Z,986.98
2017-11-11T05:27:32.009Z,986.96
2017-11-11T05:28:31.983Z,986.97
2017-11-11T05:29:31.964Z,986.90
2017-11-11T05:30:31.937Z,986.90
2017-11-11T05:31:31.920Z,986.95
2017-11-11T05:32:31.888Z,986.93
2017-11-11T05:33:31.864Z,986.85
2017-11-11T05:34:31.847Z,986.84
2017-11-11T05:35:31.821Z,986.93
2017-11-11T05:36:31.844Z,986.90
2017-11-11T05:37:31.771Z,986.90
2017-11-11T05:38:31.747Z,986.91
2017-11-11T05:39:31.727Z,986.93
2017-11-11T05:40:31.707Z,986.95
2017-11-11T05:41:31.679Z,986.90
2017-11-11T05:42:31.655Z,986.95
2017-11-11T05:43:31.634Z,986.91
2017-11-11T05:44:31.610Z,986.89
2017-11-11T05:45:31.588Z,986.89
2017-11-11T05:46:31.574Z,987.00
2017-11-11T05:47:31.536Z,986.88
2017-11-11T05:48:31.515Z,986.84
2017-11-11T05:49:31.495Z,986.85
2017-11-11T05:50:31.467Z,986.86
2017-11-11T05:51:31.456Z,986.84
2017-11-11T05:52:31.419Z,986.83
2017-11-11T05:53:31.401Z,986.77
2017-11-11T05:54:31.373Z,986.86
2017-11-11T05:55:31.352Z,986.77
2017-11-11T05:56:31.328Z,986.83
2017-11-11T05:57:31.312Z,986.71
2017-11-11T05:58:31.285Z,986.74
2017-11-11T05:59:31.260Z,986.69
2017-11-11T06:00:31.257Z,986.70
2017-11-11T06:01:31.210Z,986.72
2017-11-11T06:02:31.184Z,986.70
2017-11-11T06:03:31.168Z,986.66
2017-11-11T06:04:31.141Z,986.73
2017-11-11T06:05:31.138Z,986.65
2017-11-11T06:06:31.093Z,986.63
2017-11-11T06:07:31.086Z,986.63
2017-11-11T06:08:31.057Z,986.58
2017-11-11T06:09:31.032Z,986.57
2017-11-11T06:10:31.020Z,986.59
2017-11-11T06:11:30.984Z,986.66
2017-11-11T06:12:30.964Z,986.64
2017-11-11T06:13:30.941Z,986.62
2017-11-11T06:14:30.914Z,986.65
2017-11-11T06:15:30.916Z,986.64
2017-11-11T06:16:30.932Z,986.63
2017-11-11T06:17:30.864Z,986.64
2017-11-11T06:18:30.831Z,986.62
2017-11-11T06:19:30.808Z,986.63
2017-11-11T06:20:30.785Z,986.62
2017-11-11T06:21:30.754Z,986.63
2017-11-11T06:22:30.734Z,986.68
2017-11-11T06:23:30.708Z,986.62
2017-11-11T06:24:30.681Z,986.64
2017-11-11T06:25:30.678Z,986.61
2017-11-11T06:26:30.647Z,986.65
2017-11-11T06:27:30.628Z,986.61
2017-11-11T06:28:30.593Z,986.63
2017-11-11T06:29:30.570Z,986.65
2017-11-11T06:30:30.551Z,986.58
2017-11-11T06:31:30.516Z,986.63
2017-11-11T06:32:30.493Z,986.55
2017-11-11T06:33:30.469Z,986.64
2017-11-11T06:34:30.468Z,986.61
2017-11-11T06:35:30.421Z,986.62
2017-11-11T06:36:30.399Z,986.66
2017-11-11T06:37:30.381Z,986.65
2017-11-11T06:38:30.349Z,986.75
2017-11-11T06:39:30.326Z,986.64
2017-11-11T06:40:30.307Z,986.61
2017-11-11T06:41:30.281Z,986.64
2017-11-11T06:42:30.261Z,986.61
2017-11-11T06:43:30.236Z,986.59
2017-11-11T06:44:30.215Z,986.64
2017-11-11T06:45:30.187Z,986.61
2017-11-11T06:46:30.175Z,986.65
2017-11-11T06:47:30.156Z,986.62
2017-11-11T06:48:30.117Z,986.61
2017-11-11T06:49:30.096Z,986.58
2017-11-11T06:50:30.080Z,986.55
2017-11-11T06:51:30.047Z,986.51
2017-11-11T06:52:30.029Z,986.55
2017-11-11T06:53:30.004Z,986.58
2017-11-11T06:54:29.979Z,986.59
2017-11-11T06:55:29.955Z,986.57
2017-11-11T06:56:29.929Z,986.53
2017-11-11T06:57:29.912Z,986.56
2017-11-11T06:58:29.883Z,986.56
2017-11-11T06:59:29.864Z,986.54
2017-11-11T07:00:29.843Z,986.49
2017-11-11T07:01:29.820Z,986.53
2017-11-11T07:02:29.786Z,986.47
2017-11-11T07:03:29.766Z,986.52
2017-11-11T07:04:29.749Z,986.47
2017-11-11T07:05:29.730Z,986.49
2017-11-11T07:06:29.705Z,986.50
2017-11-11T07:07:29.677Z,986.46
2017-11-11T07:08:29.651Z,986.45
2017-11-11T07:09:29.626Z,986.47
2017-11-11T07:10:29.601Z,986.40
2017-11-11T07:11:29.579Z,986.42
2017-11-11T07:12:29.561Z,986.37
2017-11-11T07:13:29.532Z,986.39
2017-11-11T07:14:29.513Z,986.41
2017-11-11T07:15:29.488Z,986.43
2017-11-11T07:16:29.467Z,986.45
2017-11-11T07:17:29.446Z,986.39
2017-11-11T07:18:29.417Z,986.36
2017-11-11T07:19:29.389Z,986.41
2017-11-11T07:20:29.370Z,986.40
2017-11-11T07:21:29.357Z,986.39
2017-11-11T07:22:29.318Z,986.39
2017-11-11T07:23:29.298Z,986.37
2017-11-11T07:24:29.275Z,986.36
2017-11-11T07:25:29.255Z,986.33
2017-11-11T07:26:29.231Z,986.31
2017-11-11T07:27:29.208Z,986.39
2017-11-11T07:28:29.184Z,986.32
2017-11-11T07:29:29.158Z,986.40
2017-11-11T07:30:29.135Z,986.42
2017-11-11T07:31:29.114Z,986.35
2017-11-11T07:32:29.085Z,986.37
2017-11-11T07:33:29.092Z,986.42
2017-11-11T07:34:29.037Z,986.34
2017-11-11T07:35:29.020Z,986.42
2017-11-11T07:36:29.004Z,986.41
2017-11-11T07:37:28.975Z,986.40
2017-11-11T07:38:28.955Z,986.34
2017-11-11T07:39:28.921Z,986.38
2017-11-11T07:40:28.908Z,986.36
2017-11-11T07:41:28.878Z,986.45
2017-11-11T07:42:28.855Z,986.36
2017-11-11T07:43:28.829Z,986.33
2017-11-11T07:44:28.806Z,986.33
2017-11-11T07:45:28.789Z,986.41
2017-11-11T07:46:28.766Z,986.36
2017-11-11T07:47:28.741Z,986.33
2017-11-11T07:48:28.727Z,986.33
2017-11-11T07:49:28.689Z,986.33
2017-11-11T07:50:28.665Z,986.34
2017-11-11T07:51:28.646Z,986.28
2017-11-11T07:52:28.617Z,986.29
2017-11-11T07:53:28.596Z,986.31
2017-11-11T07:54:28.572Z,986.30
2017-11-11T07:55:28.563Z,986.34
2017-11-11T07:56:28.536Z,986.23
2017-11-11T07:57:28.507Z,986.21
2017-11-11T07:58:28.482Z,986.19
2017-11-11T07:59:28.453Z,986.19
2017-11-11T08:00:28.433Z,986.27
2017-11-11T08:01:28.410Z,986.19
2017-11-11T08:02:28.384Z,986.15
2017-11-11T08:03:28.375Z,986.17
2017-11-11T08:04:28.344Z,986.17
2017-11-11T08:05:28.327Z,986.07
2017-11-11T08:06:28.292Z,986.06
2017-11-11T08:07:28.268Z,986.09
2017-11-11T08:08:28.246Z,986.14
2017-11-11T08:09:28.221Z,986.13
2017-11-11T08:10:28.197Z,986.11
2017-11-11T08:11:28.173Z,986.07
2017-11-11T08:12:28.181Z,986.19
2017-11-11T08:13:28.128Z,986.19
2017-11-11T08:14:28.113Z,986.13
2017-11-11T08:15:28.092Z,986.08
2017-11-11T08:16:28.064Z,986.13
2017-11-11T08:17:28.036Z,986.02
2017-11-11T08:18:28.011Z,986.04
2017-11-11T08:19:28.010Z,986.01
2017-11-11T08:20:27.970Z,986.10
2017-11-11T08:21:27.946Z,986.00
2017-11-11T08:22:27.919Z,986.04
2017-11-11T08:23:27.906Z,986.01
2017-11-11T08:24:27.882Z,985.96
2017-11-11T08:25:27.847Z,986.00
2017-11-11T08:26:27.823Z,985.93
2017-11-11T08:27:27.801Z,985.92
2017-11-11T08:28:27.777Z,985.89
2017-11-11T08:29:27.761Z,986.12
2017-11-11T08:30:27.731Z,986.02
2017-11-11T08:31:27.725Z,985.91
2017-11-11T08:32:27.702Z,985.93
2017-11-11T08:33:27.669Z,985.88
2017-11-11T08:34:27.647Z,985.98
2017-11-11T08:35:27.632Z,985.96
2017-11-11T08:36:27.590Z,986.02
2017-11-11T08:37:27.568Z,986.06
2017-11-11T08:38:27.542Z,985.94
2017-11-11T08:39:27.521Z,985.75
2017-11-11T08:40:27.503Z,985.84
2017-11-11T08:41:27.475Z,985.78
2017-11-11T08:42:27.463Z,985.92
2017-11-11T08:43:27.432Z,985.81
2017-11-11T08:44:27.408Z,985.79
2017-11-11T08:45:27.381Z,985.82
2017-11-11T08:46:27.358Z,985.72
2017-11-11T08:47:27.338Z,985.73
2017-11-11T08:48:27.316Z,985.74
2017-11-11T08:49:27.297Z,985.76
2017-11-11T08:50:27.264Z,985.73
2017-11-11T08:51:27.295Z,985.84
2017-11-11T08:52:27.286Z,985.82
2017-11-11T08:53:27.197Z,985.79
2017-11-11T08:54:27.174Z,985.82
2017-11-11T08:55:27.149Z,985.75
2017-11-11T08:56:27.130Z,985.76
2017-11-11T08:57:27.112Z,985.97
2017-11-11T08:58:27.081Z,985.90
2017-11-11T08:59:27.067Z,985.89
2017-11-11T09:00:27.034Z,985.76
2017-11-11T09:01:27.021Z,985.78
2017-11-11T09:02:26.988Z,985.82
2017-11-11T09:03:26.965Z,985.75
2017-11-11T09:04:26.940Z,985.84
2017-11-11T09:05:26.917Z,985.86
2017-11-11T09:06:26.901Z,985.84
2017-11-11T09:07:26.872Z,985.72
2017-11-11T09:08:26.849Z,985.83
2017-11-11T09:09:26.825Z,985.82
2017-11-11T09:10:26.810Z,985.76
2017-11-11T09:11:26.784Z,985.74
2017-11-11T09:12:26.753Z,985.75
2017-11-11T09:13:26.751Z,985.60
2017-11-11T09:14:26.714Z,985.65
2017-11-11T09:15:26.688Z,985.70
2017-11-11T09:16:26.669Z,985.57
2017-11-11T09:17:26.639Z,985.63
2017-11-11T09:18:26.616Z,985.63
2017-11-11T09:19:26.601Z,985.55
2017-11-11T09:20:26.592Z,985.53
2017-11-11T09:21:26.551Z,985.52
2017-11-11T09:22:26.523Z,985.58
2017-11-11T09:23:26.513Z,985.56
2017-11-11T09:24:26.474Z,985.50
2017-11-11T09:25:26.454Z,985.38
2017-11-11T09:26:26.428Z,985.48
2017-11-11T09:27:26.405Z,985.49
2017-11-11T09:28:26.384Z,985.59
2017-11-11T09:29:26.365Z,985.41
2017-11-11T09:30:26.340Z,985.42
2017-11-11T09:31:26.326Z,985.36
2017-11-11T09:32:26.292Z,985.42
2017-11-11T09:33:26.269Z,985.38
2017-11-11T09:34:26.244Z,985.49
2017-11-11T09:35:26.231Z,985.42
2017-11-11T09:36:26.198Z,985.27
2017-11-11T09:37:26.175Z,985.34
2017-11-11T09:38:26.164Z,985.45
2017-11-11T09:39:26.135Z,985.29
2017-11-11T09:40:26.119Z,985.24
2017-11-11T09:41:26.083Z,985.21
2017-11-11T09:42:26.059Z,985.23
2017-11-11T09:43:26.039Z,985.18
2017-11-11T09:44:26.018Z,985.12
2017-11-11T09:45:26.011Z,985.12
2017-11-11T09:46:25.978Z,984.98
2017-11-11T09:47:25.960Z,985.11
2017-11-11T09:48:25.926Z,985.04
2017-11-11T09:49:25.901Z,985.16
2017-11-11T09:50:25.878Z,985.07
2017-11-11T09:51:25.864Z,985.11
2017-11-11T09:52:25.830Z,985.09
2017-11-11T09:53:25.809Z,984.98
2017-11-11T09:54:25.814Z,985.25
2017-11-11T09:55:25.777Z,985.04
2017-11-11T09:56:25.752Z,984.99
2017-11-11T09:57:25.720Z,984.95
2017-11-11T09:58:25.696Z,984.96
2017-11-11T09:59:25.675Z,984.90
2017-11-11T10:00:25.650Z,984.89
2017-11-11T10:01:25.647Z,984.90
2017-11-11T10:02:25.624Z,984.92
2017-11-11T10:03:25.586Z,984.90
2017-11-11T10:04:25.561Z,985.09
2017-11-11T10:05:25.541Z,985.04
2017-11-11T10:06:25.511Z,985.05
2017-11-11T10:07:25.491Z,984.96
2017-11-11T10:08:25.467Z,985.00
2017-11-11T10:09:25.453Z,985.08
2017-11-11T10:10:25.425Z,985.02
2017-11-11T10:11:25.438Z,985.02
2017-11-11T10:12:25.384Z,984.96
2017-11-11T10:13:25.353Z,984.98
2017-11-11T10:14:25.329Z,985.11
2017-11-11T10:15:25.309Z,985.04
2017-11-11T10:16:25.311Z,985.10
2017-11-11T10:17:25.263Z,984.95
2017-11-11T10:18:25.252Z,984.95
2017-11-11T10:19:25.217Z,985.31
2017-11-11T10:20:25.198Z,984.93
2017-11-11T10:21:25.173Z,985.05
2017-11-11T10:22:25.147Z,984.87
2017-11-11T10:23:25.149Z,985.07
2017-11-11T10:24:25.110Z,984.89
2017-11-11T10:25:25.094Z,984.85
2017-11-11T10:26:25.057Z,984.85
2017-11-11T10:27:25.034Z,985.05
2017-11-11T10:28:25.018Z,984.85
2017-11-11T10:29:24.997Z,985.10
2017-11-11T10:30:24.967Z,984.90
2017-11-11T10:31:24.957Z,984.91
2017-11-11T10:32:24.942Z,985.07
2017-11-11T10:33:24.897Z,984.92
2017-11-11T10:34:24.877Z,984.82
2017-11-11T10:35:24.857Z,984.81
2017-11-11T10:36:24.837Z,984.73
2017-11-11T10:37:24.809Z,984.86
2017-11-11T10:38:24.799Z,984.80
2017-11-11T10:39:24.782Z,984.67
2017-11-11T10:40:24.747Z,984.64
2017-11-11T10:41:24.719Z,984.81
2017-11-11T10:42:24.702Z,984.77
2017-11-11T10:43:24.671Z,984.72
2017-11-11T10:44:24.656Z,984.74
2017-11-11T10:45:24.632Z,984.67
2017-11-11T10:46:24.606Z,984.65
2017-11-11T10:47:24.589Z,984.71
2017-11-11T10:48:24.564Z,984.65
2017-11-11T10:49:24.541Z,984.65
2017-11-11T10:50:24.513Z,984.72
2017-11-11T10:51:24.529Z,984.63
2017-11-11T10:52:24.465Z,984.62
2017-11-11T10:53:24.472Z,984.67
2017-11-11T10:54:24.435Z,984.60
2017-11-11T10:55:24.407Z,984.59
2017-11-11T10:56:24.389Z,984.63
2017-11-11T10:57:24.351Z,984.79
2017-11-11T10:58:24.327Z,984.76
2017-11-11T10:59:24.306Z,984.51
2017-11-11T11:00:24.285Z,984.53
2017-11-11T11:01:24.280Z,984.52
2017-11-11T11:02:24.253Z,984.51
2017-11-11T11:03:24.240Z,984.61
2017-11-11T11:04:24.194Z,984.50
2017-11-11T11:05:24.174Z,984.48
2017-11-11T11:06:24.179Z,984.38
2017-11-11T11:07:24.123Z,984.44
2017-11-11T11:08:24.101Z,984.40
2017-11-11T11:09:24.078Z,984.39
2017-11-11T11:10:24.070Z,984.36
2017-11-11T11:11:24.038Z,984.58
2017-11-11T11:12:24.015Z,984.55
2017-11-11T11:13:24.009Z,984.45
2017-11-11T11:14:23.964Z,984.33
2017-11-11T11:15:23.941Z,984.28
2017-11-11T11:16:23.917Z,984.57
2017-11-11T11:17:23.894Z,984.29
2017-11-11T11:18:23.885Z,984.34
2017-11-11T11:19:23.862Z,984.27
2017-11-11T11:20:23.842Z,984.28
2017-11-11T11:21:23.804Z,984.39
2017-11-11T11:22:23.781Z,984.27
2017-11-11T11:23:23.759Z,984.31
2017-11-11T11:24:23.735Z,984.15
2017-11-11T11:25:23.724Z,984.21
2017-11-11T11:26:23.691Z,984.16
2017-11-11T11:27:23.677Z,984.13
2017-11-11T11:28:23.644Z,984.08
2017-11-11T11:29:23.638Z,984.08
2017-11-11T11:30:23.606Z,984.17
2017-11-11T11:31:23.609Z,984.10
2017-11-11T11:32:23.553Z,984.12
2017-11-11T11:33:23.530Z,984.01
2017-11-11T11:34:23.509Z,984.01
2017-11-11T11:35:23.490Z,984.04
2017-11-11T11:36:23.463Z,983.94
2017-11-11T11:37:23.439Z,983.96
2017-11-11T11:38:23.411Z,983.92
2017-11-11T11:39:23.392Z,984.04
2017-11-11T11:40:23.370Z,983.95
2017-11-11T11:41:23.353Z,984.04
2017-11-11T11:42:23.323Z,983.96
2017-11-11T11:43:23.308Z,983.96
2017-11-11T11:44:23.286Z,983.92
2017-11-11T11:45:23.257Z,983.88
2017-11-11T11:46:23.234Z,983.92
2017-11-11T11:47:23.209Z,983.91
2017-11-11T11:48:23.189Z,983.91
2017-11-11T11:49:23.167Z,983.96
2017-11-11T11:50:23.153Z,983.88
2017-11-11T11:51:23.119Z,983.97
2017-11-11T11:52:23.101Z,983.98
2017-11-11T11:53:23.075Z,983.84
2017-11-11T11:54:23.051Z,983.90
2017-11-11T11:55:23.030Z,983.82
2017-11-11T11:56:23.005Z,983.81
2017-11-11T11:57:22.988Z,983.79
2017-11-11T11:58:22.960Z,983.72
2017-11-11T11:59:22.940Z,983.76
2017-11-11T12:00:22.922Z,983.64
2017-11-11T12:01:22.896Z,983.65
2017-11-11T12:02:22.868Z,983.62
2017-11-11T12:03:22.844Z,983.58
2017-11-11T12:04:22.825Z,983.56
2017-11-11T12:05:22.802Z,983.53
2017-11-11T12:06:22.774Z,983.52
2017-11-11T12:07:22.754Z,983.52
2017-11-11T12:08:22.761Z,983.43
2017-11-11T12:09:22.709Z,983.47
2017-11-11T12:10:22.689Z,983.55
2017-11-11T12:11:22.710Z,983.62
2017-11-11T12:12:22.641Z,983.52
2017-11-11T12:13:22.623Z,983.43
2017-11-11T12:14:22.595Z,983.37
2017-11-11T12:15:22.576Z,983.31
2017-11-11T12:16:22.553Z,983.33
2017-11-11T12:17:22.530Z,983.43
2017-11-11T12:18:22.507Z,983.33
2017-11-11T12:19:22.481Z,983.27
2017-11-11T12:20:22.461Z,983.29
2017-11-11T12:21:22.435Z,983.21
2017-11-11T12:22:22.412Z,983.26
2017-11-11T12:23:22.397Z,983.24
2017-11-11T12:24:22.367Z,983.23
2017-11-11T12:25:22.347Z,983.21
2017-11-11T12:26:22.323Z,983.13
2017-11-11T12:27:22.299Z,983.35
2017-11-11T12:28:22.275Z,983.11
2017-11-11T12:29:22.253Z,983.15
2017-11-11T12:30:22.229Z,983.15
2017-11-11T12:31:22.208Z,983.05
2017-11-11T12:32:22.207Z,983.13
2017-11-11T12:33:22.172Z,983.06
2017-11-11T12:34:22.153Z,983.02
2017-11-11T12:35:22.120Z,982.92
2017-11-11T12:36:22.098Z,983.04
2017-11-11T12:37:22.070Z,983.02
2017-11-11T12:38:22.045Z,983.02
2017-11-11T12:39:22.040Z,982.91
2017-11-11T12:40:22.005Z,982.92
2017-11-11T12:41:21.978Z,982.86
2017-11-11T12:42:21.963Z,982.90
2017-11-11T12:43:21.944Z,982.84
2017-11-11T12:44:21.912Z,983.01
2017-11-11T12:45:21.888Z,982.80
2017-11-11T12:46:21.865Z,982.76
2017-11-11T12:47:21.842Z,982.77
2017-11-11T12:48:21.818Z,982.69
2017-11-11T12:49:21.798Z,982.76
2017-11-11T12:50:21.787Z,982.70
2017-11-11T12:51:21.789Z,982.71
2017-11-11T12:52:21.729Z,982.74
2017-11-11T12:53:21.706Z,982.59
2017-11-11T12:54:21.683Z,982.63
2017-11-11T12:55:21.660Z,982.62
2017-11-11T12:56:21.643Z,982.69
2017-11-11T12:57:21.622Z,982.67
2017-11-11T12:58:21.604Z,982.59
2017-11-11T12:59:21.574Z,982.59
2017-11-11T13:00:21.548Z,982.71
2017-11-11T13:01:21.524Z,982.79
2017-11-11T13:02:21.511Z,982.63
2017-11-11T13:03:21.476Z,982.69
2017-11-11T13:04:21.454Z,982.64
2017-11-11T13:05:21.434Z,982.61
2017-11-11T13:06:21.409Z,982.53
2017-11-11T13:07:21.387Z,982.54
2017-11-11T13:08:21.365Z,982.45
2017-11-11T13:09:21.348Z,982.47
2017-11-11T13:10:21.318Z,982.43
2017-11-11T13:11:21.299Z,982.49
2017-11-11T13:12:21.291Z,982.52
2017-11-11T13:13:21.253Z,982.37
2017-11-11T13:14:21.230Z,982.42
2017-11-11T13:15:21.208Z,982.47
2017-11-11T13:16:21.185Z,982.42
2017-11-11T13:17:21.160Z,982.43
2017-11-11T13:18:21.139Z,982.53
2017-11-11T13:19:21.113Z,982.42
2017-11-11T13:20:21.091Z,982.51
2017-11-11T13:21:21.070Z,982.43
2017-11-11T13:22:21.042Z,982.39
2017-11-11T13:23:21.028Z,982.47
2017-11-11T13:24:21.000Z,982.43
2017-11-11T13:25:20.977Z,982.44
2017-11-11T13:26:20.954Z,982.38
2017-11-11T13:27:20.934Z,982.44
2017-11-11T13:28:20.913Z,982.40
2017-11-11T13:29:20.885Z,982.38
2017-11-11T13:30:20.862Z,982.40
2017-11-11T13:31:20.889Z,982.39
2017-11-11T13:32:20.820Z,982.33
2017-11-11T13:33:20.796Z,982.41
2017-11-11T13:34:20.770Z,982.43
2017-11-11T13:35:20.756Z,982.43
2017-11-11T13:36:20.725Z,982.39
2017-11-11T13:37:20.704Z,982.42
2017-11-11T13:38:20.678Z,982.34
2017-11-11T13:39:20.658Z,982.37
2017-11-11T13:40:20.641Z,982.33
2017-11-11T13:41:20.612Z,982.31
2017-11-11T13:42:20.589Z,982.34
2017-11-11T13:43:20.573Z,982.34
2017-11-11T13:44:20.546Z,982.34
2017-11-11T13:45:20.521Z,982.33
2017-11-11T13:46:20.497Z,982.36
2017-11-11T13:47:20.473Z,982.34
2017-11-11T13:48:20.457Z,982.32
2017-11-11T13:49:20.431Z,982.37
2017-11-11T13:50:20.406Z,982.37
2017-11-11T13:51:20.387Z,982.31
2017-11-11T13:52:20.369Z,982.36
2017-11-11T13:53:20.337Z,982.32
2017-11-11T13:54:20.311Z,982.30
2017-11-11T13:55:20.292Z,982.31
2017-11-11T13:56:20.267Z,982.31
2017-11-11T13:57:20.249Z,982.34
2017-11-11T13:58:20.222Z,982.33